Portada
METAR-TAF:

METAR-TAF

Aeroports :

Hafar Al-Batin, Aràbia Saudita

latitud: 27-54N, longitud: 045-32E, altitud: 413 m

METAR: manca

Hora: 05:36 (02:36 UTC)

Pronòstic

L'informe es va fer fa 21 hores i 36 minuts, a les 05:00 UTC
Pronòstic vàlid del 20 a les 06 UTC al 20 a les 20 UTC
Vent 3 kt amb direcció variable
Visibilitat: 7000 m
Evolucionant progressivament
l' 20 a les 06 UTC al 20 a les 08 UTC
Vent 10 kt del Oest
Evolucionant progressivament
l' 20 a les 10 UTC al 20 a les 12 UTC
Vent 13 kt del Nord

TAF: OEKK 200500Z 2006/2020 VRB03KT 7000 NSC BECMG 2006/2008 27010KT BECMG 2010/2012 36013KT

Observacions i pronòstics meteorològics de més de 4000 aeroports (METAR i TAF).

Les estacions disponibles són els punts grocs i vermells al mapa.

Posi el ratolí al punt desitjat per veure el nom de l'estació.

Feu clic per veure les observacions i els pronòstics meteorològics.

Per canviar el mapa: feu clic els botons verds amb una creu de color negre per apropar; al botó verd amb un guió per allunyar la imatge; o en les fletxes verdes per a mapes adjacents.


METAR-TAF: